createdAt,value
2016-12-13T00:00:11.169Z,0
2016-12-13T00:00:51.614Z,0
2016-12-13T00:01:32.069Z,0
2016-12-13T00:02:12.596Z,0
2016-12-13T00:02:53.100Z,0
2016-12-13T00:03:33.592Z,0
2016-12-13T00:04:14.071Z,0
2016-12-13T00:04:54.587Z,0
2016-12-13T00:05:35.056Z,0
2016-12-13T00:06:15.548Z,0
2016-12-13T00:06:56.039Z,0
2016-12-13T00:07:36.528Z,0
2016-12-13T00:08:17.003Z,0
2016-12-13T00:08:57.502Z,0
2016-12-13T00:09:37.940Z,0
2016-12-13T00:10:18.417Z,0
2016-12-13T00:10:58.884Z,0
2016-12-13T00:11:39.348Z,0
2016-12-13T00:12:19.803Z,0
2016-12-13T00:13:00.281Z,0
2016-12-13T00:13:40.753Z,0
2016-12-13T00:14:21.225Z,0
2016-12-13T00:15:01.696Z,0
2016-12-13T00:15:42.209Z,0
2016-12-13T00:16:22.676Z,0
2016-12-13T00:17:03.160Z,0
2016-12-13T00:17:43.618Z,0
2016-12-13T00:18:24.092Z,0
2016-12-13T00:19:04.581Z,0
2016-12-13T00:19:45.064Z,0
2016-12-13T00:20:25.558Z,0
2016-12-13T00:21:06.039Z,0
2016-12-13T00:21:46.522Z,0
2016-12-13T00:22:26.998Z,0
2016-12-13T00:23:07.468Z,0
2016-12-13T00:23:47.996Z,0
2016-12-13T00:24:28.458Z,0
2016-12-13T00:25:08.930Z,0
2016-12-13T00:25:49.443Z,0
2016-12-13T00:26:29.909Z,0
2016-12-13T00:27:10.515Z,0
2016-12-13T00:27:50.982Z,0
2016-12-13T00:28:31.444Z,0
2016-12-13T00:29:11.914Z,0
2016-12-13T00:29:52.374Z,0
2016-12-13T00:30:32.832Z,0
2016-12-13T00:31:13.386Z,0
2016-12-13T00:31:53.879Z,0
2016-12-13T00:32:34.317Z,0
2016-12-13T00:33:14.815Z,0
2016-12-13T00:33:55.297Z,0
2016-12-13T00:34:35.755Z,0
2016-12-13T00:35:16.195Z,0
2016-12-13T00:35:56.681Z,0
2016-12-13T00:36:37.165Z,0
2016-12-13T00:37:17.680Z,0
2016-12-13T00:37:58.175Z,0
2016-12-13T00:38:38.675Z,0
2016-12-13T00:39:19.167Z,0
2016-12-13T00:39:59.660Z,0
2016-12-13T00:40:40.142Z,0
2016-12-13T00:41:20.625Z,0
2016-12-13T00:42:01.084Z,0
2016-12-13T00:42:41.552Z,0
2016-12-13T00:43:22.026Z,0
2016-12-13T00:44:02.500Z,0
2016-12-13T00:44:43.015Z,0
2016-12-13T00:45:23.490Z,0
2016-12-13T00:46:03.969Z,0
2016-12-13T00:46:44.446Z,0
2016-12-13T00:47:24.949Z,0
2016-12-13T00:48:05.422Z,0
2016-12-13T00:48:45.912Z,0
2016-12-13T00:49:26.404Z,0
2016-12-13T00:50:06.894Z,0
2016-12-13T00:50:47.368Z,0
2016-12-13T00:51:27.858Z,0
2016-12-13T00:52:08.304Z,0
2016-12-13T00:52:48.798Z,0
2016-12-13T00:53:29.276Z,0
2016-12-13T00:54:09.769Z,0
2016-12-13T00:54:50.268Z,0
2016-12-13T00:55:30.762Z,0
2016-12-13T00:56:11.230Z,0
2016-12-13T00:56:51.698Z,0
2016-12-13T00:57:32.188Z,0
2016-12-13T00:58:12.684Z,0
2016-12-13T00:58:53.124Z,0
2016-12-13T00:59:33.616Z,0
2016-12-13T01:00:14.120Z,0
2016-12-13T01:00:54.621Z,0
2016-12-13T01:01:35.127Z,0
2016-12-13T01:02:15.598Z,0
2016-12-13T01:02:56.092Z,0
2016-12-13T01:03:36.580Z,0
2016-12-13T01:04:17.056Z,0
2016-12-13T01:04:57.530Z,0
2016-12-13T01:05:37.974Z,0
2016-12-13T01:06:18.485Z,0
2016-12-13T01:06:58.955Z,0
2016-12-13T01:07:39.439Z,0
2016-12-13T01:08:19.920Z,0
2016-12-13T01:09:00.397Z,0
2016-12-13T01:09:40.881Z,0
2016-12-13T01:10:21.382Z,0
2016-12-13T01:11:01.875Z,0
2016-12-13T01:11:42.370Z,0
2016-12-13T01:12:22.856Z,0
2016-12-13T01:13:03.332Z,0
2016-12-13T01:13:43.810Z,0
2016-12-13T01:14:24.324Z,0
2016-12-13T01:15:04.815Z,0
2016-12-13T01:15:45.313Z,0
2016-12-13T01:16:25.796Z,0
2016-12-13T01:17:06.259Z,0
2016-12-13T01:17:46.758Z,0
2016-12-13T01:18:27.207Z,0
2016-12-13T01:19:07.708Z,0
2016-12-13T01:19:48.179Z,0
2016-12-13T01:20:28.682Z,0
2016-12-13T01:21:09.183Z,0
2016-12-13T01:21:49.631Z,0
2016-12-13T01:22:30.103Z,0
2016-12-13T01:23:10.623Z,0
2016-12-13T01:23:51.108Z,0
2016-12-13T01:24:31.564Z,0
2016-12-13T01:25:12.057Z,0
2016-12-13T01:25:52.506Z,0
2016-12-13T01:26:33.017Z,0
2016-12-13T01:27:13.548Z,0
2016-12-13T01:27:54.029Z,0
2016-12-13T01:28:34.518Z,0
2016-12-13T01:29:14.992Z,0
2016-12-13T01:29:55.478Z,0
2016-12-13T01:30:35.973Z,0
2016-12-13T01:31:16.439Z,0
2016-12-13T01:31:56.939Z,0
2016-12-13T01:32:37.397Z,0
2016-12-13T01:33:17.868Z,0
2016-12-13T01:33:58.331Z,0
2016-12-13T01:34:38.791Z,0
2016-12-13T01:35:19.291Z,0
2016-12-13T01:35:59.763Z,0
2016-12-13T01:36:40.218Z,0
2016-12-13T01:37:20.712Z,0
2016-12-13T01:38:01.200Z,0
2016-12-13T01:38:41.676Z,0
2016-12-13T01:39:22.177Z,0
2016-12-13T01:40:02.672Z,0
2016-12-13T01:40:43.141Z,0
2016-12-13T01:41:23.590Z,0
2016-12-13T01:42:04.065Z,0
2016-12-13T01:42:44.525Z,0
2016-12-13T01:43:25.002Z,0
2016-12-13T01:44:05.486Z,0
2016-12-13T01:44:46.009Z,0
2016-12-13T01:45:26.477Z,0
2016-12-13T01:46:06.944Z,0
2016-12-13T01:46:47.444Z,0
2016-12-13T01:47:27.895Z,0
2016-12-13T01:48:08.415Z,0
2016-12-13T01:48:48.915Z,0
2016-12-13T01:49:29.442Z,0
2016-12-13T01:50:09.905Z,0
2016-12-13T01:50:50.415Z,0
2016-12-13T01:51:30.868Z,0
2016-12-13T01:52:11.346Z,0
2016-12-13T01:52:51.823Z,0
2016-12-13T01:53:32.342Z,0
2016-12-13T01:54:12.816Z,0
2016-12-13T01:54:53.297Z,0
2016-12-13T01:55:33.754Z,0
2016-12-13T01:56:14.268Z,0
2016-12-13T01:56:54.743Z,0
2016-12-13T01:57:35.247Z,0
2016-12-13T01:58:15.716Z,0
2016-12-13T01:58:56.208Z,0
2016-12-13T01:59:36.710Z,0
2016-12-13T02:00:17.204Z,0
2016-12-13T02:00:57.679Z,0
2016-12-13T02:01:38.177Z,0
2016-12-13T02:02:18.638Z,0
2016-12-13T02:02:59.103Z,0
2016-12-13T02:03:39.575Z,0
2016-12-13T02:04:20.040Z,0
2016-12-13T02:05:00.527Z,0
2016-12-13T02:05:40.991Z,0
2016-12-13T02:06:21.479Z,0
2016-12-13T02:07:01.993Z,0
2016-12-13T02:07:42.455Z,0
2016-12-13T02:08:22.992Z,0
2016-12-13T02:09:03.461Z,0
2016-12-13T02:09:43.937Z,0
2016-12-13T02:10:24.387Z,0
2016-12-13T02:11:04.890Z,0
2016-12-13T02:11:45.336Z,0
2016-12-13T02:12:25.802Z,0
2016-12-13T02:13:06.335Z,0
2016-12-13T02:13:46.801Z,0
2016-12-13T02:14:27.287Z,0
2016-12-13T02:15:07.749Z,0
2016-12-13T02:15:48.252Z,0
2016-12-13T02:16:28.719Z,0
2016-12-13T02:17:09.237Z,0
2016-12-13T02:17:49.727Z,0
2016-12-13T02:18:30.162Z,0
2016-12-13T02:19:10.698Z,0
2016-12-13T02:19:51.161Z,0
2016-12-13T02:20:31.668Z,0
2016-12-13T02:21:12.154Z,0
2016-12-13T02:21:52.627Z,0
2016-12-13T02:22:33.148Z,0
2016-12-13T02:23:13.622Z,0
2016-12-13T02:23:54.122Z,0
2016-12-13T02:24:34.626Z,0
2016-12-13T02:25:15.124Z,0
2016-12-13T02:25:55.570Z,0
2016-12-13T02:26:36.066Z,0
2016-12-13T02:27:16.589Z,0
2016-12-13T02:27:57.046Z,0
2016-12-13T02:28:37.520Z,0
2016-12-13T02:29:18.078Z,0
2016-12-13T02:29:58.538Z,0
2016-12-13T02:30:38.996Z,0
2016-12-13T02:31:19.477Z,0
2016-12-13T02:31:59.964Z,0
2016-12-13T02:32:40.453Z,0
2016-12-13T02:33:20.914Z,0
2016-12-13T02:34:01.386Z,0
2016-12-13T02:34:41.852Z,0
2016-12-13T02:35:22.354Z,0
2016-12-13T02:36:02.841Z,0
2016-12-13T02:36:43.336Z,0
2016-12-13T02:37:23.827Z,0
2016-12-13T02:38:04.311Z,0
2016-12-13T02:38:44.800Z,0
2016-12-13T02:39:25.308Z,0
2016-12-13T02:40:05.793Z,0
2016-12-13T02:40:46.292Z,0
2016-12-13T02:41:26.764Z,0
2016-12-13T02:42:07.251Z,0
2016-12-13T02:42:47.763Z,0
2016-12-13T02:43:28.250Z,0
2016-12-13T02:44:08.750Z,0
2016-12-13T02:44:49.218Z,0
2016-12-13T02:45:29.697Z,0
2016-12-13T02:46:10.174Z,0
2016-12-13T02:46:50.660Z,0
2016-12-13T02:47:31.143Z,0
2016-12-13T02:48:11.633Z,0
2016-12-13T02:48:52.125Z,0
2016-12-13T02:49:32.613Z,0
2016-12-13T02:50:13.090Z,0
2016-12-13T02:50:53.576Z,0
2016-12-13T02:51:34.087Z,0
2016-12-13T02:52:14.536Z,0
2016-12-13T02:52:55.032Z,0
2016-12-13T02:53:35.507Z,0
2016-12-13T02:54:15.974Z,0
2016-12-13T02:54:56.454Z,0
2016-12-13T02:55:36.947Z,0
2016-12-13T02:56:17.439Z,0
2016-12-13T02:56:57.901Z,0
2016-12-13T02:57:38.397Z,0
2016-12-13T02:58:18.876Z,0
2016-12-13T02:58:59.386Z,0
2016-12-13T02:59:39.875Z,0
2016-12-13T03:00:20.383Z,0
2016-12-13T03:01:00.846Z,0
2016-12-13T03:01:41.338Z,0
2016-12-13T03:02:21.794Z,0
2016-12-13T03:03:02.260Z,0
2016-12-13T03:03:42.733Z,0
2016-12-13T03:04:23.227Z,0
2016-12-13T03:05:03.704Z,0
2016-12-13T03:05:44.189Z,0
2016-12-13T03:06:24.664Z,0
2016-12-13T03:07:05.119Z,0
2016-12-13T03:07:45.604Z,0
2016-12-13T03:08:26.085Z,0
2016-12-13T03:09:06.582Z,0
2016-12-13T03:09:47.064Z,0
2016-12-13T03:10:27.544Z,0
2016-12-13T03:11:08.031Z,0
2016-12-13T03:11:48.494Z,0
2016-12-13T03:12:28.983Z,0
2016-12-13T03:13:09.464Z,0
2016-12-13T03:13:49.948Z,0
2016-12-13T03:14:30.451Z,0
2016-12-13T03:15:10.925Z,0
2016-12-13T03:15:51.396Z,0
2016-12-13T03:16:31.867Z,0
2016-12-13T03:17:12.374Z,0
2016-12-13T03:17:52.853Z,0
2016-12-13T03:18:33.369Z,0
2016-12-13T03:19:13.866Z,0
2016-12-13T03:19:54.347Z,0
2016-12-13T03:20:34.822Z,0
2016-12-13T03:21:15.323Z,0
2016-12-13T03:21:55.776Z,0
2016-12-13T03:22:36.268Z,0
2016-12-13T03:23:16.759Z,0
2016-12-13T03:23:57.249Z,0
2016-12-13T03:24:37.708Z,0
2016-12-13T03:25:18.224Z,0
2016-12-13T03:25:58.724Z,0
2016-12-13T03:26:39.193Z,0
2016-12-13T03:27:19.672Z,0
2016-12-13T03:28:00.160Z,0
2016-12-13T03:28:40.618Z,0
2016-12-13T03:29:21.125Z,0
2016-12-13T03:30:01.595Z,0
2016-12-13T03:30:42.075Z,0
2016-12-13T03:31:22.564Z,0
2016-12-13T03:32:03.048Z,0
2016-12-13T03:32:43.519Z,0
2016-12-13T03:33:23.984Z,0
2016-12-13T03:34:04.478Z,0
2016-12-13T03:34:44.965Z,0
2016-12-13T03:35:25.420Z,0
2016-12-13T03:36:05.907Z,0
2016-12-13T03:36:46.390Z,0
2016-12-13T03:37:26.870Z,0
2016-12-13T03:38:07.380Z,0
2016-12-13T03:38:47.841Z,0
2016-12-13T03:39:28.361Z,0
2016-12-13T03:40:08.841Z,0
2016-12-13T03:40:49.303Z,0
2016-12-13T03:41:29.807Z,0
2016-12-13T03:42:10.311Z,0
2016-12-13T03:42:50.751Z,0
2016-12-13T03:43:31.283Z,0
2016-12-13T03:44:11.747Z,0
2016-12-13T03:44:52.202Z,0
2016-12-13T03:45:32.694Z,0
2016-12-13T03:46:13.154Z,0
2016-12-13T03:46:53.628Z,0
2016-12-13T03:47:34.105Z,0
2016-12-13T03:48:14.597Z,0
2016-12-13T03:48:55.064Z,0
2016-12-13T03:49:35.549Z,0
2016-12-13T03:50:16.029Z,0
2016-12-13T03:50:56.491Z,0
2016-12-13T03:51:36.992Z,0
2016-12-13T03:52:17.451Z,0
2016-12-13T03:52:57.888Z,0
2016-12-13T03:53:38.416Z,0
2016-12-13T03:54:18.903Z,0
2016-12-13T03:54:59.369Z,0
2016-12-13T03:55:39.830Z,0
2016-12-13T03:56:20.325Z,0
2016-12-13T03:57:00.788Z,0
2016-12-13T03:57:41.279Z,0
2016-12-13T03:58:21.757Z,0
2016-12-13T03:59:02.235Z,0
2016-12-13T03:59:42.739Z,0
2016-12-13T04:00:23.237Z,0
2016-12-13T04:01:03.692Z,0
2016-12-13T04:01:44.215Z,0
2016-12-13T04:02:24.672Z,0
2016-12-13T04:03:05.161Z,0
2016-12-13T04:03:45.650Z,0
2016-12-13T04:04:26.111Z,0
2016-12-13T04:05:06.619Z,0
2016-12-13T04:05:47.082Z,0
2016-12-13T04:06:27.560Z,0
2016-12-13T04:07:08.079Z,0
2016-12-13T04:07:48.602Z,0
2016-12-13T04:08:29.024Z,0
2016-12-13T04:09:09.513Z,0
2016-12-13T04:09:49.960Z,0
2016-12-13T04:10:30.449Z,0
2016-12-13T04:11:10.929Z,0
2016-12-13T04:11:51.384Z,0
2016-12-13T04:12:31.852Z,0
2016-12-13T04:13:12.336Z,0
2016-12-13T04:13:52.815Z,0
2016-12-13T04:14:33.293Z,0
2016-12-13T04:15:13.784Z,0
2016-12-13T04:15:54.259Z,0
2016-12-13T04:16:34.769Z,0
2016-12-13T04:17:15.265Z,0
2016-12-13T04:17:55.708Z,0
2016-12-13T04:18:36.213Z,0
2016-12-13T04:19:16.679Z,0
2016-12-13T04:19:57.162Z,0
2016-12-13T04:20:37.639Z,0
2016-12-13T04:21:18.135Z,0
2016-12-13T04:21:58.615Z,0
2016-12-13T04:22:39.104Z,0
2016-12-13T04:23:19.569Z,0
2016-12-13T04:24:00.051Z,0
2016-12-13T04:24:40.567Z,0
2016-12-13T04:25:21.003Z,0
2016-12-13T04:26:01.490Z,0
2016-12-13T04:26:41.953Z,0
2016-12-13T04:27:22.476Z,0
2016-12-13T04:28:02.959Z,0
2016-12-13T04:28:43.514Z,0
2016-12-13T04:29:23.999Z,0
2016-12-13T04:30:04.496Z,0
2016-12-13T04:30:44.987Z,0
2016-12-13T04:31:25.457Z,0
2016-12-13T04:32:05.950Z,0
2016-12-13T04:32:46.442Z,0
2016-12-13T04:33:26.914Z,0
2016-12-13T04:34:07.394Z,0
2016-12-13T04:34:47.863Z,0
2016-12-13T04:35:28.333Z,0
2016-12-13T04:36:08.789Z,0
2016-12-13T04:36:49.260Z,0
2016-12-13T04:37:29.775Z,0
2016-12-13T04:38:10.229Z,0
2016-12-13T04:38:50.711Z,0
2016-12-13T04:39:31.197Z,0
2016-12-13T04:40:11.687Z,0
2016-12-13T04:40:52.152Z,0
2016-12-13T04:41:32.625Z,0
2016-12-13T04:42:13.100Z,0
2016-12-13T04:42:53.634Z,0
2016-12-13T04:43:34.079Z,0
2016-12-13T04:44:14.567Z,0
2016-12-13T04:44:55.059Z,0
2016-12-13T04:45:35.536Z,0
2016-12-13T04:46:16.021Z,0
2016-12-13T04:46:56.515Z,0
2016-12-13T04:47:36.979Z,0
2016-12-13T04:48:17.480Z,0
2016-12-13T04:48:57.936Z,0
2016-12-13T04:49:38.427Z,0
2016-12-13T04:50:18.878Z,0
2016-12-13T04:50:59.387Z,0
2016-12-13T04:51:39.871Z,0
2016-12-13T04:52:20.375Z,0
2016-12-13T04:53:00.829Z,0
2016-12-13T04:53:41.298Z,0
2016-12-13T04:54:21.782Z,0
2016-12-13T04:55:02.276Z,0
2016-12-13T04:55:42.753Z,0
2016-12-13T04:56:23.197Z,0
2016-12-13T04:57:03.664Z,0
2016-12-13T04:57:44.160Z,0
2016-12-13T04:58:24.615Z,0
2016-12-13T04:59:05.115Z,0
2016-12-13T04:59:45.630Z,0
2016-12-13T05:00:26.116Z,0
2016-12-13T05:01:06.592Z,0
2016-12-13T05:01:47.068Z,0
2016-12-13T05:02:27.553Z,0
2016-12-13T05:03:07.996Z,0
2016-12-13T05:03:48.517Z,0
2016-12-13T05:04:28.997Z,0
2016-12-13T05:05:09.485Z,0
2016-12-13T05:05:49.972Z,0
2016-12-13T05:06:30.435Z,0
2016-12-13T05:07:10.931Z,0
2016-12-13T05:07:51.384Z,0
2016-12-13T05:08:31.887Z,0
2016-12-13T05:09:12.382Z,0
2016-12-13T05:09:52.868Z,0
2016-12-13T05:10:33.364Z,0
2016-12-13T05:11:13.840Z,0
2016-12-13T05:11:54.353Z,0
2016-12-13T05:12:34.821Z,0
2016-12-13T05:13:15.293Z,0
2016-12-13T05:13:55.791Z,0
2016-12-13T05:14:36.271Z,0
2016-12-13T05:15:16.738Z,0
2016-12-13T05:15:57.240Z,0
2016-12-13T05:16:37.712Z,0
2016-12-13T05:17:18.200Z,0
2016-12-13T05:17:58.738Z,0
2016-12-13T05:18:39.230Z,0
2016-12-13T05:19:19.676Z,0
2016-12-13T05:20:00.161Z,0
2016-12-13T05:20:40.678Z,0
2016-12-13T05:21:21.137Z,0
2016-12-13T05:22:01.617Z,0
2016-12-13T05:22:42.120Z,0
2016-12-13T05:23:22.550Z,0
2016-12-13T05:24:03.022Z,0
2016-12-13T05:24:43.568Z,0
2016-12-13T05:25:24.045Z,0
2016-12-13T05:26:04.517Z,0
2016-12-13T05:26:45.006Z,0
2016-12-13T05:27:25.472Z,0
2016-12-13T05:28:05.961Z,0
2016-12-13T05:28:46.436Z,0
2016-12-13T05:29:26.925Z,0
2016-12-13T05:30:07.385Z,0
2016-12-13T05:30:47.847Z,0
2016-12-13T05:31:28.329Z,0
2016-12-13T05:32:08.795Z,0
2016-12-13T05:32:49.312Z,0
2016-12-13T05:33:29.817Z,0
2016-12-13T05:34:10.296Z,0
2016-12-13T05:34:50.802Z,0
2016-12-13T05:35:31.287Z,0
2016-12-13T05:36:11.780Z,0
2016-12-13T05:36:52.267Z,0
2016-12-13T05:37:32.740Z,0
2016-12-13T05:38:13.227Z,0
2016-12-13T05:38:53.723Z,0
2016-12-13T05:39:34.229Z,0
2016-12-13T05:40:14.707Z,0
2016-12-13T05:40:55.169Z,0
2016-12-13T05:41:35.677Z,0
2016-12-13T05:42:16.167Z,0
2016-12-13T05:42:56.638Z,0
2016-12-13T05:43:37.114Z,0
2016-12-13T05:44:17.597Z,0
2016-12-13T05:44:58.090Z,0
2016-12-13T05:45:38.568Z,0
2016-12-13T05:46:19.062Z,0
2016-12-13T05:46:59.570Z,0
2016-12-13T05:47:40.035Z,0
2016-12-13T05:48:20.521Z,0
2016-12-13T05:49:00.990Z,0
2016-12-13T05:49:41.498Z,0
2016-12-13T05:50:21.986Z,0
2016-12-13T05:51:02.480Z,0
2016-12-13T05:51:42.942Z,0
2016-12-13T05:52:23.512Z,0
2016-12-13T05:53:04.006Z,0
2016-12-13T05:53:44.488Z,0
2016-12-13T05:54:24.959Z,0
2016-12-13T05:55:05.459Z,0
2016-12-13T05:55:45.936Z,0
2016-12-13T05:56:26.433Z,0
2016-12-13T05:57:06.912Z,0
2016-12-13T05:57:47.389Z,0
2016-12-13T05:58:27.880Z,0
2016-12-13T05:59:08.346Z,0
2016-12-13T05:59:48.831Z,0
2016-12-13T06:00:29.315Z,0
2016-12-13T06:01:09.809Z,0
2016-12-13T06:01:50.298Z,0
2016-12-13T06:02:30.810Z,0
2016-12-13T06:03:11.287Z,0
2016-12-13T06:03:51.756Z,0
2016-12-13T06:04:32.246Z,0
2016-12-13T06:05:12.711Z,0
2016-12-13T06:05:53.188Z,0
2016-12-13T06:06:33.663Z,0
2016-12-13T06:07:14.155Z,0
2016-12-13T06:07:54.660Z,0
2016-12-13T06:08:35.166Z,0
2016-12-13T06:09:15.616Z,0
2016-12-13T06:09:56.083Z,0
2016-12-13T06:10:36.556Z,0
2016-12-13T06:11:17.035Z,0
2016-12-13T06:11:57.529Z,0
2016-12-13T06:12:38.002Z,0
2016-12-13T06:13:18.500Z,0
2016-12-13T06:13:59.003Z,0
2016-12-13T06:14:39.498Z,0
2016-12-13T06:15:19.986Z,0
2016-12-13T06:16:00.789Z,0
2016-12-13T06:16:41.294Z,0
2016-12-13T06:17:21.806Z,0
2016-12-13T06:18:02.308Z,0
2016-12-13T06:18:42.821Z,0
2016-12-13T06:19:23.328Z,0
2016-12-13T06:20:03.820Z,0
2016-12-13T06:20:44.301Z,0
2016-12-13T06:21:24.796Z,0
2016-12-13T06:22:05.279Z,0
2016-12-13T06:22:45.783Z,0
2016-12-13T06:23:26.368Z,0
2016-12-13T06:24:07.035Z,0
2016-12-13T06:24:47.535Z,0
2016-12-13T06:25:28.011Z,0
2016-12-13T06:26:08.560Z,0
2016-12-13T06:26:49.052Z,0
2016-12-13T06:27:29.905Z,0
2016-12-13T06:28:10.407Z,0
2016-12-13T06:28:50.906Z,0
2016-12-13T06:29:31.404Z,0
2016-12-13T06:30:11.893Z,0
2016-12-13T06:30:52.384Z,0
2016-12-13T06:31:32.856Z,0
2016-12-13T06:32:13.345Z,0
2016-12-13T06:32:53.835Z,0
2016-12-13T06:33:34.317Z,0
2016-12-13T06:34:14.803Z,0
2016-12-13T06:34:55.297Z,0
2016-12-13T06:35:35.795Z,0
2016-12-13T06:36:16.288Z,0
2016-12-13T06:36:56.784Z,0
2016-12-13T06:37:37.286Z,0
2016-12-13T06:38:17.781Z,0
2016-12-13T06:38:58.280Z,0
2016-12-13T06:39:38.778Z,0
2016-12-13T06:40:19.274Z,0
2016-12-13T06:40:59.747Z,0
2016-12-13T06:41:40.242Z,0
2016-12-13T06:42:20.749Z,0
2016-12-13T06:43:01.234Z,0
2016-12-13T06:43:41.727Z,0
2016-12-13T06:44:22.228Z,0
2016-12-13T06:45:02.730Z,0
2016-12-13T06:45:43.258Z,0
2016-12-13T06:46:23.791Z,0
2016-12-13T06:47:04.295Z,0
2016-12-13T06:47:44.787Z,0
2016-12-13T06:48:25.286Z,0
2016-12-13T06:49:05.870Z,0
2016-12-13T06:49:46.401Z,0
2016-12-13T06:50:26.883Z,0
2016-12-13T06:51:07.392Z,0
2016-12-13T06:51:47.887Z,0
2016-12-13T06:52:28.390Z,0
2016-12-13T06:53:08.890Z,0
2016-12-13T06:53:49.394Z,0
2016-12-13T06:54:29.884Z,0
2016-12-13T06:55:10.379Z,0
2016-12-13T06:55:50.870Z,0
2016-12-13T06:56:31.396Z,0
2016-12-13T06:57:11.945Z,0
2016-12-13T06:57:52.452Z,0
2016-12-13T06:58:32.947Z,0
2016-12-13T06:59:13.455Z,0
2016-12-13T06:59:53.945Z,0
2016-12-13T07:00:34.431Z,0
2016-12-13T07:01:14.946Z,0
2016-12-13T07:01:55.439Z,0
2016-12-13T07:02:36.025Z,0
2016-12-13T07:03:16.513Z,0
2016-12-13T07:03:57.008Z,0
2016-12-13T07:04:37.500Z,0
2016-12-13T07:05:17.997Z,0
2016-12-13T07:05:58.511Z,0
2016-12-13T07:06:39.014Z,0
2016-12-13T07:07:19.508Z,0
2016-12-13T07:08:00.006Z,0
2016-12-13T07:08:40.512Z,0
2016-12-13T07:09:20.995Z,0
2016-12-13T07:10:01.501Z,0
2016-12-13T07:10:42.049Z,0
2016-12-13T07:11:22.551Z,0
2016-12-13T07:12:03.073Z,0
2016-12-13T07:12:43.584Z,0
2016-12-13T07:13:24.097Z,0
2016-12-13T07:14:04.605Z,0
2016-12-13T07:14:45.124Z,0
2016-12-13T07:15:25.635Z,0
2016-12-13T07:16:06.129Z,0
2016-12-13T07:16:46.631Z,0
2016-12-13T07:17:27.873Z,0
2016-12-13T07:18:08.036Z,0
2016-12-13T07:18:48.517Z,0
2016-12-13T07:19:29.037Z,0
2016-12-13T07:20:09.538Z,0
2016-12-13T07:20:51.133Z,0
2016-12-13T07:21:31.639Z,0
2016-12-13T07:22:12.151Z,0
2016-12-13T07:22:52.648Z,0
2016-12-13T07:23:33.218Z,0
2016-12-13T07:24:13.748Z,0
2016-12-13T07:24:54.239Z,0
2016-12-13T07:25:34.745Z,0
2016-12-13T07:26:15.267Z,0
2016-12-13T07:26:55.860Z,0
2016-12-13T07:27:36.324Z,0
2016-12-13T07:28:16.823Z,0
2016-12-13T07:28:57.331Z,0
2016-12-13T07:29:37.819Z,0
2016-12-13T07:30:18.326Z,0
2016-12-13T07:30:58.818Z,0
2016-12-13T07:31:39.303Z,0
2016-12-13T07:32:19.809Z,0
2016-12-13T07:33:00.304Z,0
2016-12-13T07:33:40.826Z,0
2016-12-13T07:34:21.321Z,0
2016-12-13T07:35:01.816Z,0
2016-12-13T07:35:42.316Z,0
2016-12-13T07:36:22.820Z,0
2016-12-13T07:37:03.325Z,5
2016-12-13T07:37:43.820Z,5
2016-12-13T07:38:24.316Z,5
2016-12-13T07:39:04.824Z,5
2016-12-13T07:39:45.308Z,5
2016-12-13T07:40:25.803Z,5
2016-12-13T07:41:06.282Z,5
2016-12-13T07:41:46.785Z,5
2016-12-13T07:42:27.270Z,5
2016-12-13T07:43:07.768Z,5
2016-12-13T07:43:48.268Z,5
2016-12-13T07:44:28.780Z,5
2016-12-13T07:45:09.303Z,5
2016-12-13T07:45:49.791Z,5
2016-12-13T07:46:30.280Z,5
2016-12-13T07:47:10.787Z,5
2016-12-13T07:47:51.293Z,5
2016-12-13T07:48:31.800Z,10
2016-12-13T07:49:12.293Z,10
2016-12-13T07:49:52.796Z,10
2016-12-13T07:50:33.299Z,10
2016-12-13T07:51:13.790Z,10
2016-12-13T07:51:54.296Z,10
2016-12-13T07:52:34.775Z,10
2016-12-13T07:53:15.326Z,10
2016-12-13T07:53:55.897Z,10
2016-12-13T07:54:36.397Z,15
2016-12-13T07:55:16.928Z,15
2016-12-13T07:55:57.459Z,15
2016-12-13T07:56:37.964Z,15
2016-12-13T07:57:18.533Z,15
2016-12-13T07:59:46.924Z,15
2016-12-13T08:00:27.433Z,15
2016-12-13T08:01:07.927Z,15
2016-12-13T08:01:48.421Z,15
2016-12-13T08:02:28.988Z,15
2016-12-13T08:03:09.474Z,15
2016-12-13T08:03:49.980Z,15
2016-12-13T08:04:30.478Z,15
2016-12-13T08:05:11.075Z,15
2016-12-13T08:05:51.567Z,15
2016-12-13T08:06:32.040Z,15
2016-12-13T08:07:12.514Z,15
2016-12-13T08:07:53.036Z,15
2016-12-13T08:08:33.561Z,15
2016-12-13T08:09:14.013Z,15
2016-12-13T08:09:54.501Z,15
2016-12-13T08:10:34.993Z,20
2016-12-13T08:11:15.477Z,20
2016-12-13T08:11:56.493Z,20
2016-12-13T08:12:36.942Z,20
2016-12-13T08:13:17.454Z,20
2016-12-13T08:13:57.973Z,20
2016-12-13T08:14:38.478Z,20
2016-12-13T08:15:18.979Z,20
2016-12-13T08:15:59.466Z,25
2016-12-13T08:16:40.001Z,25
2016-12-13T08:17:20.499Z,25
2016-12-13T08:18:00.999Z,25
2016-12-13T08:18:41.919Z,25
2016-12-13T08:19:22.398Z,25
2016-12-13T08:20:02.905Z,25
2016-12-13T08:20:43.400Z,30
2016-12-13T08:21:25.996Z,30
2016-12-13T08:22:06.525Z,30
2016-12-13T08:22:47.010Z,30
2016-12-13T08:23:27.476Z,35
2016-12-13T08:24:07.982Z,35
2016-12-13T08:24:48.460Z,35
2016-12-13T08:25:28.992Z,35
2016-12-13T08:26:09.552Z,35
2016-12-13T08:26:50.059Z,35
2016-12-13T08:27:30.554Z,35
2016-12-13T08:28:11.049Z,40
2016-12-13T08:28:51.549Z,40
2016-12-13T08:29:32.056Z,40
2016-12-13T08:30:12.556Z,40
2016-12-13T08:30:53.062Z,40
2016-12-13T08:31:33.587Z,40
2016-12-13T08:32:14.089Z,45
2016-12-13T08:32:54.586Z,45
2016-12-13T08:33:35.085Z,45
2016-12-13T08:34:15.577Z,45
2016-12-13T08:34:56.197Z,45
2016-12-13T08:35:36.724Z,45
2016-12-13T08:36:17.217Z,45
2016-12-13T08:36:57.700Z,45
2016-12-13T08:37:38.198Z,45
2016-12-13T08:38:18.678Z,45
2016-12-13T08:38:59.140Z,45
2016-12-13T08:39:39.646Z,50
2016-12-13T08:40:20.175Z,50
2016-12-13T08:41:00.674Z,50
2016-12-13T08:41:43.505Z,50
2016-12-13T08:42:24.006Z,50
2016-12-13T08:43:04.534Z,55
2016-12-13T08:43:45.040Z,55
2016-12-13T08:44:25.568Z,55
2016-12-13T08:45:06.090Z,60
2016-12-13T08:45:46.567Z,60
2016-12-13T08:46:27.119Z,60
2016-12-13T08:47:07.624Z,65
2016-12-13T08:47:48.129Z,65
2016-12-13T08:48:28.628Z,65
2016-12-13T08:49:09.178Z,65
2016-12-13T08:49:49.683Z,65
2016-12-13T08:50:30.149Z,65
2016-12-13T08:51:10.618Z,65
2016-12-13T08:51:51.105Z,70
2016-12-13T08:52:31.628Z,70
2016-12-13T08:53:12.144Z,70
2016-12-13T08:53:52.614Z,75
2016-12-13T08:54:33.118Z,75
2016-12-13T08:55:13.621Z,75
2016-12-13T08:55:54.082Z,75
2016-12-13T08:56:34.539Z,80
2016-12-13T08:57:15.265Z,80
2016-12-13T08:57:56.062Z,80
2016-12-13T08:58:36.676Z,80
2016-12-13T08:59:17.148Z,85
2016-12-13T08:59:57.677Z,85
2016-12-13T09:00:38.173Z,85
2016-12-13T09:01:18.661Z,85
2016-12-13T09:01:59.143Z,85
2016-12-13T09:02:39.648Z,85
2016-12-13T09:03:20.133Z,85
2016-12-13T09:04:00.628Z,85
2016-12-13T09:04:41.118Z,85
2016-12-13T09:05:21.588Z,85
2016-12-13T09:06:02.097Z,85
2016-12-13T09:06:42.562Z,85
2016-12-13T09:07:23.039Z,85
2016-12-13T09:08:03.557Z,90
2016-12-13T09:08:44.104Z,90
2016-12-13T09:09:24.598Z,90
2016-12-13T09:10:05.230Z,85
2016-12-13T09:10:45.733Z,85
2016-12-13T09:11:26.230Z,80
2016-12-13T09:12:06.727Z,75
2016-12-13T09:12:47.192Z,75
2016-12-13T09:13:27.708Z,70
2016-12-13T09:14:08.209Z,70
2016-12-13T09:14:48.687Z,65
2016-12-13T09:15:29.196Z,60
2016-12-13T09:16:09.721Z,60
2016-12-13T09:16:50.225Z,60
2016-12-13T09:17:30.983Z,55
2016-12-13T09:18:12.047Z,50
2016-12-13T09:18:52.709Z,50
2016-12-13T09:19:33.321Z,45
2016-12-13T09:20:13.779Z,45
2016-12-13T09:22:37.262Z,40
2016-12-13T09:23:17.659Z,40
2016-12-13T09:23:58.180Z,40
2016-12-13T09:24:38.683Z,40
2016-12-13T09:25:19.185Z,40
2016-12-13T09:25:59.673Z,40
2016-12-13T09:26:40.207Z,45
2016-12-13T09:27:20.698Z,45
2016-12-13T09:28:01.221Z,45
2016-12-13T09:28:41.706Z,45
2016-12-13T09:29:22.233Z,45
2016-12-13T09:30:02.692Z,45
2016-12-13T09:30:44.170Z,45
2016-12-13T09:31:24.412Z,45
2016-12-13T09:37:52.850Z,55
2016-12-13T09:38:43.854Z,60
2016-12-13T09:44:59.064Z,70
2016-12-13T09:45:46.862Z,70
2016-12-13T09:46:26.406Z,75
2016-12-13T09:47:06.869Z,75
2016-12-13T09:47:47.360Z,75
2016-12-13T09:48:27.853Z,80
2016-12-13T09:49:08.437Z,80
2016-12-13T09:49:48.927Z,85
2016-12-13T09:50:29.370Z,90
2016-12-13T09:51:09.915Z,90
2016-12-13T09:51:50.960Z,95
2016-12-13T09:52:31.450Z,95
2016-12-13T09:53:11.952Z,100
2016-12-13T09:53:53.182Z,100
2016-12-13T09:54:33.681Z,100
2016-12-13T09:55:14.212Z,100
2016-12-13T09:55:55.791Z,105
2016-12-13T09:56:36.266Z,105
2016-12-13T09:57:16.775Z,105
2016-12-13T09:57:58.817Z,105
2016-12-13T09:58:39.316Z,105
2016-12-13T09:59:19.915Z,105
2016-12-13T10:00:00.526Z,110
2016-12-13T10:00:41.007Z,110
2016-12-13T10:01:21.500Z,110
2016-12-13T10:02:01.959Z,110
2016-12-13T10:02:42.537Z,110
2016-12-13T10:03:23.028Z,110
2016-12-13T10:04:03.506Z,110
2016-12-13T10:04:43.972Z,110
2016-12-13T10:05:24.531Z,110
2016-12-13T10:06:05.083Z,110
2016-12-13T10:06:45.629Z,110
2016-12-13T10:07:26.147Z,110
2016-12-13T10:08:09.684Z,105
2016-12-13T10:08:50.169Z,105